createdAt,value
2022-09-04T00:00:10.383Z,97633.66
2022-09-04T00:03:01.613Z,97635.88
2022-09-04T00:05:37.452Z,97644.94
2022-09-04T00:08:42.312Z,97645.34
2022-09-04T00:11:26.711Z,97644.06
2022-09-04T00:14:01.533Z,97644.25
2022-09-04T00:16:36.794Z,97640.47
2022-09-04T00:19:14.138Z,97649.34
2022-09-04T00:21:50.953Z,97644.38
2022-09-04T00:24:23.340Z,97650.09
2022-09-04T00:26:58.834Z,97646.78
2022-09-04T00:29:41.550Z,97652.66
2022-09-04T00:32:19.067Z,97656.75
2022-09-04T00:35:02.496Z,97651.78
2022-09-04T00:37:38.415Z,97652.78
2022-09-04T00:40:13.299Z,97652.16
2022-09-04T00:43:06.628Z,97657.25
2022-09-04T00:45:55.961Z,97652.47
2022-09-04T00:49:17.654Z,97670.56
2022-09-04T00:52:01.727Z,97671.94
2022-09-04T00:54:58.173Z,97663.44
2022-09-04T00:58:00.154Z,97660.97
2022-09-04T01:00:30.303Z,97662.00
2022-09-04T01:03:44.487Z,97665.22
2022-09-04T01:06:32.980Z,97669.56
2022-09-04T01:09:41.585Z,97671.94
2022-09-04T01:12:27.445Z,97667.44
2022-09-04T01:15:11.392Z,97665.59
2022-09-04T01:17:52.779Z,97669.63
2022-09-04T01:20:35.233Z,97668.00
2022-09-04T01:23:23.435Z,97677.84
2022-09-04T01:26:10.168Z,97675.38
2022-09-04T01:28:54.733Z,97668.53
2022-09-04T01:31:36.528Z,97675.09
2022-09-04T01:34:24.251Z,97675.47
2022-09-04T01:37:01.269Z,97682.84
2022-09-04T01:39:33.476Z,97681.19
2022-09-04T01:42:10.457Z,97679.72
2022-09-04T01:44:38.769Z,97683.88
2022-09-04T01:47:17.309Z,97689.59
2022-09-04T01:49:52.026Z,97682.97
2022-09-04T01:52:37.837Z,97681.28
2022-09-04T01:55:20.244Z,97683.50
2022-09-04T01:58:07.231Z,97688.56
2022-09-04T02:00:47.432Z,97681.94
2022-09-04T02:03:26.581Z,97694.66
2022-09-04T02:06:08.575Z,97696.69
2022-09-04T02:08:57.188Z,97697.84
2022-09-04T02:11:29.789Z,97701.56
2022-09-04T02:14:27.438Z,97695.72
2022-09-04T02:17:11.256Z,97703.94
2022-09-04T02:20:05.021Z,97705.13
2022-09-04T02:25:29.735Z,97696.81
2022-09-04T02:28:14.801Z,97697.00
2022-09-04T02:30:54.500Z,97697.16
2022-09-04T02:33:32.355Z,97696.72
2022-09-04T02:36:08.534Z,97693.38
2022-09-04T02:38:48.959Z,97694.59
2022-09-04T02:41:29.226Z,97696.59
2022-09-04T02:44:17.340Z,97701.28
2022-09-04T02:47:02.690Z,97697.16
2022-09-04T02:49:42.747Z,97697.31
2022-09-04T02:52:33.358Z,97694.00
2022-09-04T02:55:25.069Z,97692.53
2022-09-04T02:58:11.387Z,97701.56
2022-09-04T03:00:49.044Z,97700.72
2022-09-04T03:03:22.625Z,97702.56
2022-09-04T03:06:01.721Z,97699.06
2022-09-04T03:08:37.784Z,97710.75
2022-09-04T03:11:15.386Z,97709.09
2022-09-04T03:13:53.214Z,97715.47
2022-09-04T03:16:31.320Z,97709.47
2022-09-04T03:19:17.100Z,97713.16
2022-09-04T03:21:52.086Z,97709.81
2022-09-04T03:24:29.743Z,97720.50
2022-09-04T03:27:02.993Z,97726.88
2022-09-04T03:29:40.938Z,97720.03
2022-09-04T03:32:17.295Z,97718.38
2022-09-04T03:34:55.033Z,97707.84
2022-09-04T03:37:47.115Z,97719.41
2022-09-04T03:40:28.161Z,97721.41
2022-09-04T03:43:21.314Z,97722.44
2022-09-04T03:46:02.341Z,97721.41
2022-09-04T03:48:55.358Z,97716.06
2022-09-04T03:51:40.479Z,97715.88
2022-09-04T03:54:28.200Z,97721.22
2022-09-04T03:57:21.973Z,97723.91
2022-09-04T04:00:07.999Z,97727.41
2022-09-04T04:03:07.258Z,97722.88
2022-09-04T04:05:49.523Z,97724.91
2022-09-04T04:09:03.881Z,97729.59
2022-09-04T04:11:53.365Z,97728.75
2022-09-04T04:14:52.292Z,97740.47
2022-09-04T04:17:44.630Z,97737.97
2022-09-04T04:20:24.938Z,97735.31
2022-09-04T04:23:17.275Z,97739.63
2022-09-04T04:26:03.938Z,97739.63
2022-09-04T04:29:00.303Z,97745.19
2022-09-04T04:32:10.596Z,97745.19
2022-09-04T04:34:57.028Z,97749.50
2022-09-04T04:37:39.496Z,97754.00
2022-09-04T04:40:17.298Z,97753.00
2022-09-04T04:42:55.084Z,97752.81
2022-09-04T04:45:47.130Z,97759.00
2022-09-04T04:49:07.422Z,97760.84
2022-09-04T04:51:53.123Z,97761.69
2022-09-04T04:54:51.284Z,97772.38
2022-09-04T04:57:31.360Z,97780.22
2022-09-04T05:00:11.515Z,97784.38
2022-09-04T05:02:53.262Z,97789.53
2022-09-04T05:05:54.018Z,97791.22
2022-09-04T05:08:35.819Z,97795.38
2022-09-04T05:11:12.149Z,97800.53
2022-09-04T05:13:52.886Z,97793.19
2022-09-04T05:16:33.805Z,97798.38
2022-09-04T05:19:09.911Z,97811.38
2022-09-04T05:21:48.561Z,97802.34
2022-09-04T05:24:25.771Z,97804.84
2022-09-04T05:26:59.034Z,97802.81
2022-09-04T05:29:37.699Z,97813.16
2022-09-04T05:32:17.950Z,97817.31
2022-09-04T05:35:05.627Z,97817.81
2022-09-04T05:37:43.324Z,97817.81
2022-09-04T05:40:23.453Z,97833.94
2022-09-04T05:43:07.878Z,97834.44
2022-09-04T05:45:50.988Z,97836.75
2022-09-04T05:48:26.704Z,97838.06
2022-09-04T05:51:08.410Z,97846.56
2022-09-04T05:54:10.451Z,97849.53
2022-09-04T05:57:14.022Z,97850.03
2022-09-04T06:00:09.909Z,97853.19
2022-09-04T06:03:42.704Z,97859.69
2022-09-04T06:06:22.989Z,97862.00
2022-09-04T06:09:27.841Z,97864.78
2022-09-04T06:12:30.292Z,97865.06
2022-09-04T06:15:41.737Z,97870.53
2022-09-04T06:18:45.143Z,97870.00
2022-09-04T06:21:49.331Z,97881.66
2022-09-04T06:24:34.023Z,97891.63
2022-09-04T06:27:39.209Z,97884.88
2022-09-04T06:30:10.527Z,97878.81
2022-09-04T06:33:32.197Z,97877.28
2022-09-04T06:36:25.162Z,97877.34
2022-09-04T06:39:27.954Z,97876.06
2022-09-04T06:42:16.749Z,97888.41
2022-09-04T06:45:02.964Z,97888.78
2022-09-04T06:47:52.170Z,97887.28
2022-09-04T06:50:33.322Z,97885.00
2022-09-04T06:53:21.445Z,97898.56
2022-09-04T06:56:08.094Z,97887.81
2022-09-04T06:59:15.354Z,97894.47
2022-09-04T07:02:01.136Z,97895.91
2022-09-04T07:04:46.401Z,97892.59
2022-09-04T07:07:28.521Z,97898.72
2022-09-04T07:10:09.754Z,97907.34
2022-09-04T07:13:19.314Z,97904.00
2022-09-04T07:16:18.185Z,97911.13
2022-09-04T07:19:18.726Z,97912.47
2022-09-04T07:22:03.927Z,97911.28
2022-09-04T07:24:56.794Z,97907.22
2022-09-04T07:27:41.825Z,97914.97
2022-09-04T07:30:13.625Z,97906.53
2022-09-04T07:32:50.466Z,97914.09
2022-09-04T07:35:25.411Z,97924.47
2022-09-04T07:38:01.106Z,97923.91
2022-09-04T07:40:38.280Z,97929.56
2022-09-04T07:43:21.434Z,97933.34
2022-09-04T07:46:00.475Z,97927.59
2022-09-04T07:48:36.013Z,97935.06
2022-09-04T07:51:10.313Z,97941.97
2022-09-04T07:54:20.535Z,97939.50
2022-09-04T07:57:21.288Z,97946.81
2022-09-04T08:00:13.673Z,97940.81
2022-09-04T08:03:26.734Z,97946.88
2022-09-04T08:06:02.784Z,97940.69
2022-09-04T08:09:04.850Z,97950.00
2022-09-04T08:11:59.265Z,97951.47
2022-09-04T08:14:52.234Z,97950.63
2022-09-04T08:18:05.091Z,97948.97
2022-09-04T08:20:47.266Z,97952.28
2022-09-04T08:23:56.466Z,97949.31
2022-09-04T08:26:37.862Z,97961.34
2022-09-04T08:29:33.797Z,97967.53
2022-09-04T08:32:18.817Z,97969.38
2022-09-04T08:35:06.548Z,97969.09
2022-09-04T08:37:51.063Z,97968.69
2022-09-04T08:41:06.906Z,97971.94
2022-09-04T08:44:13.527Z,97969.81
2022-09-04T08:47:33.015Z,97973.28
2022-09-04T08:50:34.367Z,97973.25
2022-09-04T08:53:39.340Z,97973.41
2022-09-04T08:56:20.481Z,97967.94
2022-09-04T08:59:39.240Z,97965.28
2022-09-04T09:03:03.485Z,97961.63
2022-09-04T09:06:15.274Z,97958.50
2022-09-04T09:09:44.177Z,97968.91
2022-09-04T09:12:56.951Z,97970.63
2022-09-04T09:15:50.571Z,97966.47
2022-09-04T09:18:40.347Z,97972.81
2022-09-04T09:21:15.817Z,97967.91
2022-09-04T09:24:22.723Z,97965.28
2022-09-04T09:27:05.839Z,97967.66
2022-09-04T09:30:03.452Z,97969.59
2022-09-04T09:33:25.099Z,97969.03
2022-09-04T09:36:29.906Z,97970.59
2022-09-04T09:39:33.595Z,97969.47
2022-09-04T09:42:48.374Z,97963.13
2022-09-04T09:46:13.642Z,97955.38
2022-09-04T09:49:26.028Z,97959.31
2022-09-04T09:52:33.285Z,97954.97
2022-09-04T09:55:58.584Z,97950.59
2022-09-04T09:59:06.296Z,97954.00
2022-09-04T10:02:14.121Z,97949.25
2022-09-04T10:05:11.975Z,97952.78
2022-09-04T10:08:35.932Z,97951.91
2022-09-04T10:11:45.710Z,97953.19
2022-09-04T10:14:52.598Z,97949.25
2022-09-04T10:18:18.544Z,97948.63
2022-09-04T10:21:20.787Z,97949.41
2022-09-04T10:24:24.935Z,97953.75
2022-09-04T10:27:49.294Z,97951.03
2022-09-04T10:30:20.170Z,97946.00
2022-09-04T10:33:29.439Z,97950.84
2022-09-04T10:36:10.062Z,97942.44
2022-09-04T10:39:02.518Z,97938.38
2022-09-04T10:41:53.787Z,97935.16
2022-09-04T10:45:04.818Z,97934.66
2022-09-04T10:48:21.723Z,97941.25
2022-09-04T10:51:36.457Z,97940.41
2022-09-04T10:54:59.974Z,97929.78
2022-09-04T10:57:49.096Z,97940.41
2022-09-04T11:00:20.407Z,97934.22
2022-09-04T11:03:41.663Z,97934.72
2022-09-04T11:06:58.233Z,97935.56
2022-09-04T11:09:57.885Z,97929.53
2022-09-04T11:13:10.738Z,97935.81
2022-09-04T11:16:06.219Z,97936.66
2022-09-04T11:19:26.511Z,97930.34
2022-09-04T11:22:44.104Z,97933.59
2022-09-04T11:26:13.915Z,97937.13
2022-09-04T11:29:12.442Z,97933.91
2022-09-04T11:32:27.303Z,97931.34
2022-09-04T11:35:36.320Z,97939.47
2022-09-04T11:38:18.532Z,97928.72
2022-09-04T11:41:32.454Z,97928.38
2022-09-04T11:45:00.588Z,97924.09
2022-09-04T11:48:21.147Z,97928.06
2022-09-04T11:51:07.458Z,97925.25
2022-09-04T11:54:10.461Z,97923.31
2022-09-04T11:57:04.075Z,97935.63
2022-09-04T12:00:11.755Z,97928.47
2022-09-04T12:03:27.233Z,97930.56
2022-09-04T12:06:23.832Z,97923.16
2022-09-04T12:10:01.056Z,97918.81
2022-09-04T12:12:48.695Z,97927.72
2022-09-04T12:15:56.193Z,97928.53
2022-09-04T12:19:42.364Z,97927.75
2022-09-04T12:22:51.808Z,97924.00
2022-09-04T12:25:49.691Z,97923.00
2022-09-04T12:29:05.925Z,97908.91
2022-09-04T12:32:21.854Z,97908.91
2022-09-04T12:35:43.149Z,97914.66
2022-09-04T12:39:00.471Z,97911.72
2022-09-04T12:41:36.996Z,97909.91
2022-09-04T12:44:15.670Z,97914.09
2022-09-04T12:47:07.801Z,97910.44
2022-09-04T12:50:05.895Z,97918.50
2022-09-04T12:52:52.850Z,97918.88
2022-09-04T12:55:33.440Z,97927.50
2022-09-04T12:58:15.808Z,97923.22
2022-09-04T13:00:56.236Z,97928.75
2022-09-04T13:03:38.363Z,97928.56
2022-09-04T13:06:27.251Z,97926.38
2022-09-04T13:09:13.744Z,97928.00
2022-09-04T13:11:57.847Z,97929.88
2022-09-04T13:15:19.561Z,97927.34
2022-09-04T13:17:59.315Z,97936.59
2022-09-04T13:20:36.181Z,97931.88
2022-09-04T13:23:27.377Z,97938.31
2022-09-04T13:26:18.442Z,97939.91
2022-09-04T13:28:58.387Z,97941.50
2022-09-04T13:31:48.540Z,97944.19
2022-09-04T13:34:26.476Z,97952.09
2022-09-04T13:37:07.633Z,97952.34
2022-09-04T13:40:13.078Z,97947.06
2022-09-04T13:43:34.935Z,97946.16
2022-09-04T13:46:11.578Z,97944.41
2022-09-04T13:48:46.235Z,97942.41
2022-09-04T13:51:19.749Z,97942.63
2022-09-04T13:54:05.327Z,97945.25
2022-09-04T13:56:41.151Z,97948.44
2022-09-04T13:59:16.215Z,97945.91
2022-09-04T14:01:50.297Z,97959.75
2022-09-04T14:04:26.597Z,97949.06
2022-09-04T14:07:07.059Z,97956.09
2022-09-04T14:09:41.436Z,97954.38
2022-09-04T14:12:41.005Z,97953.00
2022-09-04T14:15:49.652Z,97943.69
2022-09-04T14:18:45.224Z,97949.13
2022-09-04T14:21:24.949Z,97951.34
2022-09-04T14:24:03.481Z,97950.00
2022-09-04T14:26:44.177Z,97944.03
2022-09-04T14:29:25.554Z,97951.13
2022-09-04T14:32:10.716Z,97947.97
2022-09-04T14:34:56.115Z,97942.53
2022-09-04T14:37:48.384Z,97950.31
2022-09-04T14:40:21.617Z,97952.00
2022-09-04T14:42:58.365Z,97956.19
2022-09-04T14:45:54.603Z,97964.44
2022-09-04T14:48:24.336Z,97951.66
2022-09-04T14:51:00.017Z,97957.44
2022-09-04T14:53:32.375Z,97943.78
2022-09-04T14:56:29.476Z,97945.22
2022-09-04T14:59:08.918Z,97945.50
2022-09-04T15:01:57.018Z,97941.41
2022-09-04T15:04:34.122Z,97939.00
2022-09-04T15:07:26.918Z,97930.53
2022-09-04T15:10:07.589Z,97939.31
2022-09-04T15:12:39.139Z,97936.31
2022-09-04T15:15:12.670Z,97945.91
2022-09-04T15:17:51.495Z,97948.38
2022-09-04T15:20:23.820Z,97944.81
2022-09-04T15:22:59.718Z,97934.72
2022-09-04T15:25:58.734Z,97945.66
2022-09-04T15:28:38.527Z,97954.94
2022-09-04T15:31:16.520Z,97942.56
2022-09-04T15:33:48.169Z,97947.78
2022-09-04T15:36:20.957Z,97937.72
2022-09-04T15:38:55.533Z,97943.19
2022-09-04T15:41:36.743Z,97944.50
2022-09-04T15:44:19.409Z,97945.56
2022-09-04T15:47:00.685Z,97948.56
2022-09-04T15:49:45.157Z,97947.69
2022-09-04T15:52:33.781Z,97949.06
2022-09-04T15:55:10.991Z,97942.47
2022-09-04T15:57:59.845Z,97959.06
2022-09-04T16:00:32.073Z,97950.81
2022-09-04T16:03:12.171Z,97951.81
2022-09-04T16:05:45.973Z,97953.09
2022-09-04T16:08:23.692Z,97961.38
2022-09-04T16:11:02.397Z,97952.56
2022-09-04T16:13:46.995Z,97955.66
2022-09-04T16:16:22.874Z,97951.19
2022-09-04T16:19:04.710Z,97949.38
2022-09-04T16:21:49.053Z,97950.56
2022-09-04T16:24:20.690Z,97948.28
2022-09-04T16:26:54.892Z,97950.03
2022-09-04T16:29:36.653Z,97954.53
2022-09-04T16:32:10.859Z,97950.00
2022-09-04T16:34:47.551Z,97952.28
2022-09-04T16:37:23.804Z,97949.41
2022-09-04T16:40:07.277Z,97952.00
2022-09-04T16:42:44.939Z,97951.56
2022-09-04T16:45:18.960Z,97947.03
2022-09-04T16:47:54.536Z,97947.66
2022-09-04T16:50:28.592Z,97949.97
2022-09-04T16:53:13.624Z,97955.25
2022-09-04T16:55:50.893Z,97952.31
2022-09-04T16:58:40.092Z,97952.72
2022-09-04T17:01:17.742Z,97956.91
2022-09-04T17:04:19.523Z,97952.31
2022-09-04T17:07:03.546Z,97962.50
2022-09-04T17:09:45.934Z,97962.88
2022-09-04T17:12:28.934Z,97959.97
2022-09-04T17:15:09.759Z,97965.81
2022-09-04T17:17:42.536Z,97973.25
2022-09-04T17:20:22.632Z,97967.13
2022-09-04T17:29:00.160Z,97970.44
2022-09-04T17:29:17.726Z,97966.06
2022-09-04T17:29:33.736Z,97967.97
2022-09-04T17:32:25.642Z,97971.25
2022-09-04T17:40:52.073Z,97974.94
2022-09-04T17:40:52.537Z,97977.31
2022-09-04T17:41:40.760Z,97973.25
2022-09-04T17:44:34.992Z,97971.56
2022-09-04T17:47:21.316Z,97981.47
2022-09-04T17:49:51.955Z,97980.50
2022-09-04T17:52:28.411Z,97978.94
2022-09-04T17:55:04.880Z,97992.63
2022-09-04T17:57:57.166Z,97995.09
2022-09-04T18:00:32.786Z,98000.38
2022-09-04T18:03:08.954Z,98006.06
2022-09-04T18:05:53.565Z,98004.50
2022-09-04T18:08:29.740Z,98003.16
2022-09-04T18:11:04.043Z,98003.72
2022-09-04T18:13:40.663Z,98028.66
2022-09-04T18:17:11.259Z,98024.69
2022-09-04T18:19:47.286Z,98025.63
2022-09-04T18:23:02.994Z,98030.34
2022-09-04T18:25:36.993Z,98042.53
2022-09-04T18:28:12.692Z,98038.66
2022-09-04T18:37:07.403Z,98046.47
2022-09-04T18:37:20.115Z,98038.84
2022-09-04T18:37:44.351Z,98052.19
2022-09-04T18:40:11.645Z,98054.94
2022-09-04T18:50:28.924Z,98055.91
2022-09-04T18:50:40.106Z,98053.75
2022-09-04T18:50:50.389Z,98060.88
2022-09-04T18:51:31.247Z,98058.41
2022-09-04T18:54:10.402Z,98053.44
2022-09-04T18:56:47.065Z,98054.72
2022-09-04T18:59:20.994Z,98057.66
2022-09-04T19:01:56.527Z,98057.25
2022-09-04T19:04:47.663Z,98058.13
2022-09-04T19:07:31.894Z,98063.59
2022-09-04T19:10:10.879Z,98058.19
2022-09-04T19:12:58.591Z,98060.72
2022-09-04T19:15:36.789Z,98062.38
2022-09-04T19:18:22.571Z,98065.97
2022-09-04T19:20:56.768Z,98072.00
2022-09-04T19:23:34.802Z,98073.94
2022-09-04T19:26:18.725Z,98071.88
2022-09-04T19:28:52.876Z,98076.03
2022-09-04T19:31:32.614Z,98070.44
2022-09-04T19:34:09.127Z,98069.22
2022-09-04T19:36:46.478Z,98070.09
2022-09-04T19:45:57.373Z,98074.44
2022-09-04T19:46:16.658Z,98071.78
2022-09-04T19:46:16.923Z,98070.09
2022-09-04T19:48:33.492Z,98068.25
2022-09-04T19:53:35.805Z,98069.91
2022-09-04T19:54:10.327Z,98069.94
2022-09-04T19:57:31.548Z,98075.97
2022-09-04T19:59:45.524Z,98070.59
2022-09-04T20:02:24.235Z,98069.56
2022-09-04T20:04:57.342Z,98062.09
2022-09-04T20:07:41.468Z,98072.69
2022-09-04T20:10:20.078Z,98079.75
2022-09-04T20:12:56.284Z,98075.63
2022-09-04T20:15:31.821Z,98075.59
2022-09-04T20:18:12.362Z,98074.16
2022-09-04T20:20:56.334Z,98073.75
2022-09-04T20:23:34.159Z,98075.19
2022-09-04T20:26:19.556Z,98076.00
2022-09-04T20:29:08.417Z,98068.53
2022-09-04T20:31:49.435Z,98065.59
2022-09-04T20:34:28.354Z,98081.59
2022-09-04T20:37:20.033Z,98075.97
2022-09-04T20:40:01.199Z,98071.41
2022-09-04T20:42:35.842Z,98070.97
2022-09-04T20:47:41.022Z,98077.84
2022-09-04T20:52:55.269Z,98077.84
2022-09-04T20:52:55.661Z,98075.75
2022-09-04T20:54:28.450Z,98080.06
2022-09-04T21:00:10.746Z,98074.28
2022-09-04T21:03:09.575Z,98070.50
2022-09-04T21:03:12.538Z,98073.00
2022-09-04T21:06:07.289Z,98075.44
2022-09-04T21:08:46.658Z,98078.75
2022-09-04T21:11:41.685Z,98080.00
2022-09-04T21:14:14.192Z,98073.56
2022-09-04T21:17:34.041Z,98068.78
2022-09-04T21:20:36.513Z,98074.97
2022-09-04T21:24:32.642Z,98083.00
2022-09-04T21:27:58.014Z,98082.97
2022-09-04T21:30:50.903Z,98088.97
2022-09-04T21:33:29.937Z,98091.03
2022-09-04T21:36:25.383Z,98091.44
2022-09-04T21:39:43.648Z,98086.00
2022-09-04T21:42:50.564Z,98091.38
2022-09-04T21:45:40.674Z,98094.66
2022-09-04T21:48:45.811Z,98093.34
2022-09-04T21:51:44.361Z,98090.63
2022-09-04T21:57:08.952Z,98101.81
2022-09-04T22:02:38.834Z,98098.41
2022-09-04T22:02:49.762Z,98113.31
2022-09-04T22:04:47.281Z,98104.97
2022-09-04T22:13:26.239Z,98112.44
2022-09-04T22:13:42.098Z,98115.50
2022-09-04T22:13:50.312Z,98113.41
2022-09-04T22:16:41.878Z,98113.16
2022-09-04T22:19:42.290Z,98111.88
2022-09-04T22:22:49.771Z,98114.97
2022-09-04T22:25:46.183Z,98111.00
2022-09-04T22:28:55.929Z,98108.72
2022-09-04T22:32:04.214Z,98109.09
2022-09-04T22:35:35.668Z,98116.06
2022-09-04T22:38:54.668Z,98117.69
2022-09-04T22:41:59.889Z,98117.38
2022-09-04T22:44:46.762Z,98121.28
2022-09-04T22:47:35.911Z,98114.25
2022-09-04T22:50:50.882Z,98117.53
2022-09-04T22:53:47.599Z,98115.59
2022-09-04T22:56:24.213Z,98114.75
2022-09-04T22:59:52.941Z,98112.84
2022-09-04T23:03:10.189Z,98122.50
2022-09-04T23:06:27.423Z,98122.72
2022-09-04T23:13:44.006Z,98119.56
2022-09-04T23:13:57.111Z,98125.50
2022-09-04T23:16:36.601Z,98117.19
2022-09-04T23:24:42.463Z,98119.03
2022-09-04T23:26:41.493Z,98126.63
2022-09-04T23:26:50.368Z,98115.47
2022-09-04T23:29:23.281Z,98116.84
2022-09-04T23:32:22.459Z,98119.72
2022-09-04T23:35:14.912Z,98111.22
2022-09-04T23:38:27.540Z,98106.22
2022-09-04T23:40:58.331Z,98113.44
2022-09-04T23:44:16.851Z,98113.81
2022-09-04T23:47:48.162Z,98109.00
2022-09-04T23:50:31.253Z,98107.72
2022-09-04T23:53:13.296Z,98115.97
2022-09-04T23:56:12.469Z,98113.63
2022-09-04T23:59:12.391Z,98119.19
